createdAt,value
2022-08-03T00:03:50.097Z,3.80
2022-08-03T00:09:43.560Z,3.50
2022-08-03T00:15:38.293Z,3.80
2022-08-03T00:21:31.405Z,3.83
2022-08-03T00:27:24.868Z,3.80
2022-08-03T00:33:19.738Z,3.50
2022-08-03T00:39:15.439Z,4.60
2022-08-03T00:45:09.118Z,3.37
2022-08-03T00:51:04.216Z,3.40
2022-08-03T00:56:59.870Z,3.03
2022-08-03T01:02:54.363Z,3.70
2022-08-03T01:08:58.349Z,3.10
2022-08-03T01:14:57.231Z,3.40
2022-08-03T01:20:57.165Z,3.17
2022-08-03T01:27:14.202Z,3.37
2022-08-03T01:33:15.278Z,3.83
2022-08-03T01:39:11.415Z,3.40
2022-08-03T01:45:06.436Z,3.30
2022-08-03T01:51:02.554Z,3.57
2022-08-03T01:56:58.122Z,5.53
2022-08-03T02:02:53.505Z,3.90
2022-08-03T02:08:49.930Z,3.73
2022-08-03T02:14:45.984Z,3.83
2022-08-03T02:20:40.991Z,4.60
2022-08-03T02:26:39.800Z,6.40
2022-08-03T02:32:37.180Z,3.90
2022-08-03T02:38:42.105Z,3.90
2022-08-03T02:44:38.542Z,4.60
2022-08-03T02:50:35.466Z,5.30
2022-08-03T02:56:29.805Z,4.90
2022-08-03T03:02:25.520Z,4.50
2022-08-03T03:08:27.484Z,4.60
2022-08-03T03:14:33.770Z,6.37
2022-08-03T03:20:30.712Z,5.23
2022-08-03T03:26:24.289Z,5.53
2022-08-03T03:32:17.996Z,6.17
2022-08-03T03:38:13.066Z,4.40
2022-08-03T03:44:06.798Z,4.53
2022-08-03T03:50:01.545Z,7.73
2022-08-03T03:56:01.984Z,4.67
2022-08-03T04:01:59.242Z,5.30
2022-08-03T04:08:17.435Z,5.10
2022-08-03T04:14:14.624Z,5.43
2022-08-03T04:20:09.362Z,5.10
2022-08-03T04:26:04.250Z,4.70
2022-08-03T04:32:03.186Z,6.40
2022-08-03T04:38:01.725Z,5.23
2022-08-03T04:43:57.455Z,5.40
2022-08-03T04:49:53.052Z,5.17
2022-08-03T04:55:46.617Z,5.30
2022-08-03T05:01:41.305Z,5.60
2022-08-03T05:07:36.762Z,6.53
2022-08-03T05:13:30.211Z,5.20
2022-08-03T05:19:23.767Z,4.70
2022-08-03T05:25:20.582Z,4.80
2022-08-03T05:31:15.697Z,4.73
2022-08-03T05:37:09.082Z,5.60
2022-08-03T05:43:04.312Z,4.73
2022-08-03T05:48:57.715Z,5.27
2022-08-03T05:54:56.248Z,6.60
2022-08-03T06:00:52.066Z,6.03
2022-08-03T06:06:45.481Z,5.13
2022-08-03T06:12:41.614Z,5.00
2022-08-03T06:18:36.554Z,5.00
2022-08-03T06:24:29.944Z,5.20
2022-08-03T06:30:23.343Z,4.20
2022-08-03T06:36:18.041Z,4.20
2022-08-03T06:42:11.853Z,5.00
2022-08-03T06:48:07.693Z,4.00
2022-08-03T06:54:02.585Z,3.90
2022-08-03T07:00:07.591Z,3.70
2022-08-03T07:06:05.730Z,4.90
2022-08-03T07:12:02.656Z,5.03
2022-08-03T07:17:56.046Z,11.73
2022-08-03T07:23:49.435Z,5.50
2022-08-03T07:29:44.265Z,3.73
2022-08-03T07:35:37.700Z,3.87
2022-08-03T07:41:32.191Z,7.03
2022-08-03T07:47:35.014Z,3.73
2022-08-03T07:53:28.952Z,3.33
2022-08-03T07:59:22.379Z,3.93
2022-08-03T08:05:17.141Z,3.70
2022-08-03T08:11:10.558Z,4.07
2022-08-03T08:17:07.229Z,3.10
2022-08-03T08:23:19.959Z,2.67
2022-08-03T08:29:17.757Z,2.50
2022-08-03T08:35:11.759Z,2.50
2022-08-03T08:41:06.612Z,2.60
2022-08-03T08:47:05.076Z,3.63
2022-08-03T08:53:01.704Z,2.10
2022-08-03T08:59:00.231Z,2.30
2022-08-03T09:04:54.554Z,4.10
2022-08-03T09:10:48.379Z,2.90
2022-08-03T09:16:57.196Z,3.93
2022-08-03T09:22:59.441Z,5.00
2022-08-03T09:29:04.694Z,2.20
2022-08-03T09:35:06.204Z,3.83
2022-08-03T09:41:02.857Z,3.80
2022-08-03T09:46:57.893Z,3.73
2022-08-03T09:52:53.089Z,4.07
2022-08-03T09:58:48.036Z,4.07
2022-08-03T10:04:50.914Z,3.77
2022-08-03T10:10:46.117Z,1.70
2022-08-03T10:16:40.891Z,3.47
2022-08-03T10:22:37.340Z,3.47
2022-08-03T10:28:41.449Z,4.07
2022-08-03T10:34:44.628Z,4.43
2022-08-03T10:40:48.742Z,7.60
2022-08-03T10:46:46.451Z,5.07
2022-08-03T10:52:58.767Z,4.80
2022-08-03T10:58:57.460Z,4.40
2022-08-03T11:05:26.107Z,3.33
2022-08-03T11:11:29.623Z,4.13
2022-08-03T11:17:23.851Z,3.57
2022-08-03T11:24:04.888Z,3.30
2022-08-03T11:29:34.957Z,7.50
2022-08-03T11:35:30.454Z,3.20
2022-08-03T11:41:44.920Z,3.50
2022-08-03T11:47:50.480Z,4.10
2022-08-03T11:53:48.100Z,2.80
2022-08-03T11:59:42.885Z,6.30
2022-08-03T12:05:42.231Z,4.90
2022-08-03T12:11:50.930Z,3.70
2022-08-03T12:17:57.866Z,4.23
2022-08-03T12:23:51.741Z,2.57
2022-08-03T12:29:45.181Z,2.83
2022-08-03T12:36:08.387Z,3.23
2022-08-03T12:42:01.872Z,2.13
2022-08-03T12:47:56.666Z,1.77
2022-08-03T12:53:55.868Z,4.00
2022-08-03T12:59:53.543Z,1.97
2022-08-03T13:05:47.498Z,3.13
2022-08-03T13:11:58.256Z,3.00
2022-08-03T13:17:56.566Z,1.93
2022-08-03T13:23:50.445Z,2.50
2022-08-03T13:29:45.291Z,6.10
2022-08-03T13:35:38.926Z,2.63
2022-08-03T13:41:32.975Z,2.77
2022-08-03T13:47:28.261Z,4.80
2022-08-03T13:53:21.723Z,3.93
2022-08-03T13:59:15.056Z,3.27
2022-08-03T14:05:10.420Z,4.07
2022-08-03T14:11:05.298Z,2.23
2022-08-03T14:16:58.770Z,12.10
2022-08-03T14:22:53.719Z,2.33
2022-08-03T14:28:47.273Z,2.30
2022-08-03T14:34:40.744Z,3.27
2022-08-03T14:40:35.570Z,3.20
2022-08-03T14:46:29.110Z,2.83
2022-08-03T14:52:22.562Z,6.40
2022-08-03T14:58:19.474Z,3.50
2022-08-03T15:04:14.355Z,4.07
2022-08-03T15:10:07.867Z,3.50
2022-08-03T15:16:02.622Z,6.27
2022-08-03T15:21:56.069Z,4.80
2022-08-03T15:28:03.480Z,3.80
2022-08-03T15:33:59.159Z,2.37
2022-08-03T15:39:59.782Z,3.53
2022-08-03T15:46:26.356Z,5.03
2022-08-03T15:52:09.371Z,2.30
2022-08-03T15:59:04.578Z,4.23
2022-08-03T16:04:17.411Z,3.30
2022-08-03T16:10:13.695Z,2.97
2022-08-03T16:16:07.183Z,1.50
2022-08-03T16:22:00.950Z,3.43
2022-08-03T16:28:07.715Z,4.10
2022-08-03T16:34:06.314Z,4.93
2022-08-03T16:40:00.039Z,4.70
2022-08-03T16:45:55.232Z,3.90
2022-08-03T16:51:50.407Z,3.10
2022-08-03T16:57:58.457Z,3.50
2022-08-03T17:04:02.700Z,2.93
2022-08-03T17:09:58.044Z,3.87
2022-08-03T17:16:01.336Z,3.17
2022-08-03T17:22:03.987Z,2.77
2022-08-03T17:28:48.989Z,2.83
2022-08-03T17:34:12.897Z,4.40
2022-08-03T17:40:09.213Z,3.63
2022-08-03T17:46:07.355Z,3.33
2022-08-03T17:52:07.028Z,2.40
2022-08-03T17:58:10.739Z,2.93
2022-08-03T18:04:10.969Z,5.77
2022-08-03T18:10:11.206Z,4.50
2022-08-03T18:16:08.867Z,3.30
2022-08-03T18:22:04.382Z,5.73
2022-08-03T18:27:59.157Z,3.07
2022-08-03T18:34:19.599Z,2.70
2022-08-03T18:40:08.934Z,3.17
2022-08-03T18:46:07.711Z,4.20
2022-08-03T18:52:12.485Z,3.63
2022-08-03T18:58:18.202Z,5.53
2022-08-03T19:04:15.041Z,8.13
2022-08-03T19:10:15.687Z,3.07
2022-08-03T19:16:12.934Z,11.53
2022-08-03T19:22:07.019Z,3.50
2022-08-03T19:28:06.323Z,3.93
2022-08-03T19:34:01.386Z,3.80
2022-08-03T19:39:56.843Z,4.03
2022-08-03T19:46:06.465Z,39.90
2022-08-03T19:52:03.391Z,36.90
2022-08-03T19:57:58.192Z,34.60
2022-08-03T20:03:54.016Z,32.10
2022-08-03T20:09:47.779Z,21.03
2022-08-03T20:15:48.833Z,16.63
2022-08-03T20:21:51.337Z,7.87
2022-08-03T20:28:08.077Z,13.10
2022-08-03T20:34:01.940Z,8.73
2022-08-03T20:39:56.797Z,7.97
2022-08-03T20:46:00.811Z,9.00
2022-08-03T20:52:04.194Z,5.90
2022-08-03T20:58:00.813Z,5.10
2022-08-03T21:03:56.805Z,4.30
2022-08-03T21:09:55.473Z,4.97
2022-08-03T21:16:06.099Z,7.07
2022-08-03T21:22:10.392Z,3.83
2022-08-03T21:28:07.865Z,4.50
2022-08-03T21:34:06.533Z,4.37
2022-08-03T21:39:59.979Z,5.27
2022-08-03T21:45:55.071Z,5.97
2022-08-03T21:51:50.916Z,5.30
2022-08-03T21:57:46.611Z,7.80
2022-08-03T22:03:52.940Z,7.30
2022-08-03T22:09:50.976Z,8.67
2022-08-03T22:15:45.888Z,5.57
2022-08-03T22:21:39.353Z,6.00
2022-08-03T22:27:38.546Z,7.60
2022-08-03T22:33:32.340Z,4.90
2022-08-03T22:39:29.402Z,9.30
2022-08-03T22:46:07.695Z,5.40
2022-08-03T22:51:39.237Z,5.60
2022-08-03T22:57:34.307Z,6.83
2022-08-03T23:04:00.616Z,3.30
2022-08-03T23:09:48.766Z,7.97
2022-08-03T23:15:42.798Z,8.70
2022-08-03T23:21:59.649Z,4.40
2022-08-03T23:28:05.230Z,4.57
2022-08-03T23:34:18.923Z,8.80
2022-08-03T23:40:14.950Z,11.83
2022-08-03T23:46:10.359Z,6.90
2022-08-03T23:52:09.487Z,5.30
2022-08-03T23:58:10.769Z,8.63
